Wilkes-Barre, Pennsylvania
Current Conditions -  °F | °C
As of 1:54 AM on Monday 24 Nov 2014 (Local Time) from KAVP Reporting Station
Moderate Rain Moderate Rain  
Wind Chill: 53°   Ceiling: 10000
Heat Index: 53°   Visibility: 6mi
Dew Point: 47°   Wind: 9mph
Humidity: 80%   Direction: 170°S
Pressure: 29.74"   Gusts: NA
Location:  41.25°N, 75.88°W
Report Text: KAVP 240654Z 17008KT 130V200 6SM RA FEW017 FEW070 OVC100 12/08 A2974 RMK AO2 PRESFR SLP068 P0004 T01170083
Loading
Personal Weather Stations






























Interactive Weather Map New forecast layout! Learn more

10-Day Weather Forecast

Advertisements
Track Severe Weather on mobile